TimeEST,TemperatureF,Dew PointF,Humidity,Sea Level PressureIn,VisibilityMPH,Wind Direction,Wind SpeedMPH,Gust SpeedMPH,PrecipitationIn,Events,Conditions,WindDirDegrees,DateUTC
12:10 AM,32.0,30.2,93,30.16,10.0,Calm,Calm,-,N/A,,Overcast,0,2012-11-06 05:10:00
12:30 AM,32.0,30.2,93,30.16,10.0,Calm,Calm,-,N/A,,Overcast,0,2012-11-06 05:30:00
12:50 AM,32.0,30.2,93,30.15,10.0,Calm,Calm,-,N/A,,Overcast,0,2012-11-06 05:50:00
1:10 AM,32.0,32.0,100,30.15,10.0,East,3.5,-,N/A,,Overcast,100,2012-11-06 06:10:00
1:30 AM,33.8,32.0,93,30.15,10.0,WNW,3.5,-,N/A,,Overcast,290,2012-11-06 06:30:00
1:50 AM,33.8,30.2,87,30.14,10.0,Calm,Calm,-,N/A,,Overcast,0,2012-11-06 06:50:00
2:10 AM,33.8,32.0,93,30.14,10.0,Calm,Calm,-,N/A,,Overcast,0,2012-11-06 07:10:00
2:30 AM,33.8,32.0,93,30.14,10.0,Calm,Calm,-,N/A,,Overcast,0,2012-11-06 07:30:00
2:51 AM,33.8,32.0,93,30.14,10.0,Calm,Calm,-,N/A,,Overcast,0,2012-11-06 07:51:00
3:11 AM,33.8,32.0,93,30.13,10.0,Calm,Calm,-,N/A,,Overcast,0,2012-11-06 08:11:00
3:31 AM,33.8,32.0,93,30.12,10.0,Calm,Calm,-,N/A,,Overcast,0,2012-11-06 08:31:00
3:51 AM,33.8,32.0,93,30.11,10.0,Calm,Calm,-,N/A,,Overcast,0,2012-11-06 08:51:00
4:11 AM,33.8,32.0,93,30.11,10.0,Calm,Calm,-,N/A,,Overcast,0,2012-11-06 09:11:00
4:31 AM,32.0,32.0,100,30.10,10.0,SSE,3.5,-,N/A,,Overcast,150,2012-11-06 09:31:00
4:51 AM,32.0,32.0,100,30.10,10.0,Calm,Calm,-,N/A,,Overcast,0,2012-11-06 09:51:00
5:11 AM,32.0,32.0,100,30.10,7.0,SSE,3.5,-,N/A,,Overcast,160,2012-11-06 10:11:00
5:31 AM,32.0,32.0,100,30.09,7.0,Calm,Calm,-,N/A,,Overcast,0,2012-11-06 10:31:00
5:51 AM,32.0,32.0,100,30.10,7.0,Calm,Calm,-,N/A,,Overcast,0,2012-11-06 10:51:00
6:11 AM,32.0,32.0,100,30.09,7.0,Calm,Calm,-,N/A,,Overcast,0,2012-11-06 11:11:00
6:52 AM,33.8,32.0,93,30.09,7.0,Calm,Calm,-,N/A,,Overcast,0,2012-11-06 11:52:00
7:12 AM,33.8,32.0,93,30.10,10.0,Calm,Calm,-,N/A,,Overcast,0,2012-11-06 12:12:00
7:32 AM,33.8,32.0,93,30.11,7.0,Calm,Calm,-,N/A,,Overcast,0,2012-11-06 12:32:00
7:52 AM,33.8,32.0,93,30.11,7.0,Calm,Calm,-,N/A,,Overcast,0,2012-11-06 12:52:00
8:12 AM,33.8,32.0,93,30.11,7.0,SSE,3.5,-,N/A,,Overcast,150,2012-11-06 13:12:00
8:32 AM,33.8,32.0,93,30.11,7.0,Calm,Calm,-,N/A,,Overcast,0,2012-11-06 13:32:00
8:52 AM,33.8,32.0,93,30.10,7.0,SSE,4.6,-,N/A,,Overcast,150,2012-11-06 13:52:00
9:12 AM,33.8,32.0,93,30.09,10.0,SSE,5.8,-,N/A,,Overcast,160,2012-11-06 14:12:00
9:33 AM,35.6,32.0,87,30.09,10.0,SSE,4.6,-,N/A,,Overcast,160,2012-11-06 14:33:00
9:53 AM,35.6,32.0,87,30.09,10.0,SSE,5.8,-,N/A,,Overcast,160,2012-11-06 14:53:00
10:13 AM,35.6,32.0,87,30.09,10.0,SSE,5.8,-,N/A,,Overcast,160,2012-11-06 15:13:00
10:33 AM,37.4,32.0,81,30.09,10.0,SSE,6.9,-,N/A,,Overcast,160,2012-11-06 15:33:00
10:53 AM,37.4,30.2,75,30.09,10.0,South,6.9,-,N/A,,Overcast,170,2012-11-06 15:53:00
11:13 AM,37.4,30.2,75,30.08,10.0,South,6.9,-,N/A,,Overcast,170,2012-11-06 16:13:00
11:33 AM,39.2,30.2,70,30.08,10.0,South,8.1,-,N/A,,Overcast,180,2012-11-06 16:33:00
11:53 AM,39.2,30.2,70,30.07,10.0,South,5.8,-,N/A,,Overcast,180,2012-11-06 16:53:00
12:13 PM,39.2,28.4,65,30.06,10.0,SSE,8.1,-,N/A,,Overcast,150,2012-11-06 17:13:00
12:34 PM,41.0,28.4,61,30.05,10.0,South,6.9,-,N/A,,Overcast,190,2012-11-06 17:34:00
12:54 PM,41.0,28.4,61,30.04,10.0,South,4.6,-,N/A,,Overcast,190,2012-11-06 17:54:00
1:14 PM,41.0,26.6,57,30.03,10.0,SSW,5.8,-,N/A,,Mostly Cloudy,200,2012-11-06 18:14:00
1:34 PM,41.0,28.4,61,30.03,10.0,SSE,8.1,-,N/A,,Mostly Cloudy,160,2012-11-06 18:34:00
1:54 PM,41.0,28.4,61,30.02,10.0,SSE,8.1,-,N/A,,Mostly Cloudy,160,2012-11-06 18:54:00
2:14 PM,42.8,28.4,57,30.02,10.0,South,10.4,-,N/A,,Overcast,170,2012-11-06 19:14:00
2:34 PM,42.8,28.4,57,30.01,10.0,SSE,6.9,-,N/A,,Mostly Cloudy,160,2012-11-06 19:34:00
2:49 PM,42.8,28.4,57,30.01,10.0,SSE,5.8,-,N/A,,Overcast,160,2012-11-06 19:49:00
3:10 PM,42.8,26.6,53,30.01,10.0,Calm,Calm,-,N/A,,Overcast,0,2012-11-06 20:10:00
3:30 PM,42.8,28.4,57,30.01,10.0,South,5.8,-,N/A,,Overcast,190,2012-11-06 20:30:00
3:50 PM,42.8,28.4,57,30.00,10.0,SSE,9.2,-,N/A,,Overcast,160,2012-11-06 20:50:00
4:10 PM,41.0,28.4,61,30.00,10.0,SSE,8.1,-,N/A,,Mostly Cloudy,160,2012-11-06 21:10:00
4:30 PM,41.0,28.4,61,30.00,10.0,SSE,5.8,-,N/A,,Overcast,160,2012-11-06 21:30:00
5:10 PM,41.0,28.4,61,30.00,10.0,SE,3.5,-,N/A,,Overcast,130,2012-11-06 22:10:00
5:30 PM,39.2,30.2,70,30.00,10.0,SE,4.6,-,N/A,,Overcast,140,2012-11-06 22:30:00
5:50 PM,39.2,30.2,70,30.00,10.0,SE,6.9,-,N/A,,Overcast,140,2012-11-06 22:50:00
6:11 PM,37.4,30.2,75,30.00,10.0,SE,6.9,-,N/A,,Overcast,140,2012-11-06 23:11:00
6:31 PM,37.4,30.2,75,30.01,10.0,SE,5.8,-,N/A,,Overcast,140,2012-11-06 23:31:00
6:51 PM,37.4,30.2,75,30.01,10.0,SE,3.5,-,N/A,,Overcast,140,2012-11-06 23:51:00
7:11 PM,37.4,30.2,75,30.01,10.0,SE,3.5,-,N/A,,Mostly Cloudy,130,2012-11-07 00:11:00
7:31 PM,37.4,30.2,75,30.01,10.0,SE,4.6,-,N/A,,Mostly Cloudy,130,2012-11-07 00:31:00
7:51 PM,37.4,30.2,75,30.01,10.0,SE,5.8,-,N/A,,Mostly Cloudy,130,2012-11-07 00:51:00
8:11 PM,37.4,30.2,75,30.01,10.0,SE,4.6,-,N/A,,Scattered Clouds,130,2012-11-07 01:11:00
8:31 PM,35.6,30.2,81,30.01,10.0,SE,3.5,-,N/A,,Scattered Clouds,130,2012-11-07 01:31:00
8:51 PM,35.6,30.2,81,30.01,10.0,ESE,3.5,-,N/A,,Scattered Clouds,120,2012-11-07 01:51:00
9:12 PM,35.6,32.0,87,30.01,10.0,ESE,5.8,-,N/A,,Mostly Cloudy,120,2012-11-07 02:12:00
9:32 PM,35.6,30.2,81,30.01,10.0,SE,3.5,-,N/A,,Mostly Cloudy,130,2012-11-07 02:32:00
9:52 PM,33.8,30.2,87,30.02,10.0,SE,3.5,-,N/A,,Mostly Cloudy,130,2012-11-07 02:52:00
10:12 PM,33.8,30.2,87,30.02,10.0,ESE,5.8,-,N/A,,Mostly Cloudy,110,2012-11-07 03:12:00
10:32 PM,33.8,30.2,87,30.02,10.0,ESE,5.8,-,N/A,,Mostly Cloudy,120,2012-11-07 03:32:00
10:52 PM,33.8,30.2,87,30.01,10.0,ESE,4.6,-,N/A,,Scattered Clouds,120,2012-11-07 03:52:00
11:12 PM,33.8,30.2,87,30.01,10.0,ESE,6.9,-,N/A,,Clear,120,2012-11-07 04:12:00
11:32 PM,33.8,30.2,87,30.01,10.0,ESE,5.8,-,N/A,,Clear,110,2012-11-07 04:32:00
11:52 PM,33.8,30.2,87,30.01,10.0,ESE,6.9,-,N/A,,Clear,110,2012-11-07 04:52:00